Pagina principale
METAR-TAF:

METAR-TAF

Aeroporti :

Aeroporto di Chengdu-Shuangliu

Chengdu, Cina

latitudine: 30-40N, longitudine: 104-01E, altezza: 508 m

Osservazione

Il bollettino è stato emesso 49 minuti fa, alle 23:00 UTC
Vento 2 kt da direzioni variabili
Temperature 10°C
Umidità 87%
Pressione 1028 hPa
Visibilità: 4000 m
Nubi sparse ad un'altezza di 4000 ft
foschia

METAR: ZUUU 202300Z VRB01MPS 4000 BR SCT040 10/08 Q1028 NOSIG

Ora: 07:49 (23:49 UTC)

Previsione

Il bollettino è stato emesso 3 ore e 46 minuti fa, alle 20:03 UTC
Previsione valida dal 21 alle 00 UTC al 21 alle 24 UTC
Vento 6 kt da nord/nord-est
Visibilità: 3500 m
Nubi sparse ad un'altezza di 5000 ft
foschia

TAF: ZUUU 202003Z 2100/2124 02003MPS 3500 BR SCT050 TX13/2108Z TN07/2121Z

Osservazioni e previsioni meteorologiche di più di 4000 aeroporti (messaggi METAR e TAF).

Le stazioni disponibili sono rappresentate dai dischi gialli e rossi sulla carta.

Puntare il mouse per vedere il nome della stazione.

Clicca sopra per visualizzare le osservazioni e previsioni meteorologiche.

Per cambiare la mappa : fare clic sui pulsanti verdi con una croce nera per ingrandire, il pulsante verde con un trattino per diminuire, o sulla freccia verde per le mappe adiacenti.


METAR-TAF: